Time;durP1;ratioP1;P1;durP2;ratioP2;P2;SDS_P1;SDS_P2;PMS_P1;PMS_P2;Temp;Humidity;BMP_temperature;BMP_pressure;BME280_temperature;BME280_humidity;BME280_pressure;Samples;Min_cycle;Max_cycle;Signal;HPM_P1;HPM_P2
2021/03/06 00:02:03;;;;;;;27.75;17.13;;;6.90;99.90;;;;;;5072568;28;20056;-81
2021/03/06 00:04:29;;;;;;;27.35;16.20;;;7.00;99.90;;;;;;5072875;28;20387;-81
2021/03/06 00:06:54;;;;;;;30.40;17.42;;;6.90;99.90;;;;;;5072952;28;20029;-81
2021/03/06 00:09:20;;;;;;;27.77;16.70;;;7.10;99.90;;;;;;5072863;28;20028;-81
2021/03/06 00:11:46;;;;;;;27.35;17.13;;;7.30;99.90;;;;;;5072947;28;20056;-81
2021/03/06 00:14:11;;;;;;;29.10;18.00;;;7.30;99.90;;;;;;5072818;28;20025;-81
2021/03/06 00:16:37;;;;;;;31.08;18.00;;;6.90;99.90;;;;;;5054603;28;20016;-81
2021/03/06 00:19:02;;;;;;;26.05;16.60;;;7.10;99.90;;;;;;5072647;28;20531;-81
2021/03/06 00:21:28;;;;;;;29.23;18.52;;;6.90;99.90;;;;;;5072657;28;20035;-81
2021/03/06 00:23:54;;;;;;;28.30;17.55;;;7.00;99.90;;;;;;5072784;28;20024;-81
2021/03/06 00:26:19;;;;;;;30.00;17.98;;;7.30;99.90;;;;;;5072634;28;20079;-81
2021/03/06 00:28:45;;;;;;;25.65;17.10;;;6.90;99.90;;;;;;5072521;28;20070;-81
2021/03/06 00:31:10;;;;;;;29.02;17.88;;;7.00;99.90;;;;;;5072264;28;20025;-81
2021/03/06 00:33:36;;;;;;;28.27;18.27;;;7.20;99.90;;;;;;5072318;28;20074;-81
2021/03/06 00:36:02;;;;;;;28.50;17.15;;;7.50;99.90;;;;;;5072548;28;20031;-81
2021/03/06 00:38:27;;;;;;;29.23;18.02;;;7.00;99.90;;;;;;5071622;28;20120;-81
2021/03/06 00:40:53;;;;;;;27.60;16.67;;;7.00;99.90;;;;;;5072481;28;20036;-81
2021/03/06 00:43:18;;;;;;;27.83;17.17;;;7.10;99.90;;;;;;5072382;28;20404;-81
2021/03/06 00:45:44;;;;;;;28.67;17.63;;;7.20;99.90;;;;;;5072001;28;20063;-81
2021/03/06 00:48:10;;;;;;;27.48;17.65;;;7.10;99.90;;;;;;5072101;28;20060;-81
2021/03/06 00:50:36;;;;;;;27.85;17.55;;;6.70;99.90;;;;;;5072389;28;20029;-81
2021/03/06 00:53:03;;;;;;;28.08;17.33;;;7.30;99.90;;;;;;5072339;28;20150;-81
2021/03/06 00:55:29;;;;;;;29.95;18.27;;;7.20;99.90;;;;;;5054276;28;20025;-81
2021/03/06 00:57:55;;;;;;;28.67;18.05;;;6.80;99.90;;;;;;5072386;28;20078;-81
2021/03/06 01:00:21;;;;;;;29.42;17.98;;;7.30;99.90;;;;;;5072094;28;20557;-81
2021/03/06 01:02:47;;;;;;;29.27;17.95;;;6.90;99.90;;;;;;5072022;28;20052;-81
2021/03/06 01:05:14;;;;;;;27.75;16.92;;;6.70;99.90;;;;;;5072129;28;20400;-81
2021/03/06 01:07:40;;;;;;;26.40;16.65;;;6.70;99.90;;;;;;5072368;28;20391;-81
2021/03/06 01:10:17;;;;;;;26.60;16.92;;;6.70;99.90;;;;;;5072311;28;20028;-81
2021/03/06 01:12:43;;;;;;;27.30;16.52;;;6.70;99.90;;;;;;5071945;28;20029;-81
2021/03/06 01:15:09;;;;;;;26.13;16.35;;;6.70;99.90;;;;;;5072017;28;20365;-81
2021/03/06 01:17:35;;;;;;;26.45;16.38;;;6.90;99.90;;;;;;5072119;28;20016;-81
2021/03/06 01:20:00;;;;;;;27.58;16.42;;;7.10;99.90;;;;;;5072096;28;20056;-81
2021/03/06 01:22:26;;;;;;;26.92;16.67;;;6.80;99.90;;;;;;5072199;28;20104;-81
2021/03/06 01:24:52;;;;;;;29.52;16.90;;;6.70;99.90;;;;;;5071885;28;20563;-81
2021/03/06 01:27:18;;;;;;;25.05;16.08;;;6.80;99.90;;;;;;5072177;28;20230;-81
2021/03/06 01:29:43;;;;;;;27.48;16.98;;;6.70;99.90;;;;;;5071571;28;20063;-81
2021/03/06 01:32:09;;;;;;;26.48;16.95;;;6.60;99.90;;;;;;5071945;28;20025;-81
2021/03/06 01:34:35;;;;;;;27.42;17.13;;;6.80;99.90;;;;;;5071773;28;20396;-81
2021/03/06 01:37:01;;;;;;;25.63;16.58;;;6.40;99.90;;;;;;5071934;28;20036;-81
2021/03/06 01:39:26;;;;;;;25.33;16.50;;;6.50;99.90;;;;;;5071932;28;20547;-81
2021/03/06 01:41:52;;;;;;;24.67;16.73;;;6.80;99.90;;;;;;5071905;28;20024;-81
2021/03/06 01:44:17;;;;;;;27.73;16.98;;;7.00;99.90;;;;;;5071484;28;20059;-81
2021/03/06 01:46:43;;;;;;;27.17;17.05;;;6.90;99.90;;;;;;5071663;28;20052;-81
2021/03/06 01:49:09;;;;;;;27.13;16.60;;;6.70;99.90;;;;;;5072596;28;20042;-81
2021/03/06 01:51:35;;;;;;;25.98;17.23;;;6.70;99.90;;;;;;5075451;28;20029;-81
2021/03/06 01:54:03;;;;;;;26.05;17.02;;;7.00;99.90;;;;;;5075585;28;20354;-81
2021/03/06 01:56:31;;;;;;;26.50;17.70;;;6.60;99.90;;;;;;5075422;28;20021;-81
2021/03/06 01:58:58;;;;;;;24.75;16.25;;;6.80;99.90;;;;;;5074908;28;20074;-81
2021/03/06 02:01:23;;;;;;;26.90;17.38;;;6.80;99.90;;;;;;5075304;28;20016;-81
2021/03/06 02:03:50;;;;;;;26.23;17.95;;;6.80;99.90;;;;;;5074970;28;20428;-81
2021/03/06 02:06:17;;;;;;;28.05;16.90;;;7.10;99.90;;;;;;5057266;28;20082;-81
2021/03/06 02:08:43;;;;;;;26.58;16.77;;;6.60;99.90;;;;;;5075099;28;20100;-81
2021/03/06 02:11:09;;;;;;;25.73;16.88;;;6.70;99.90;;;;;;5075172;28;20466;-81
2021/03/06 02:14:05;;;;;;;24.90;16.83;;;7.00;99.90;;;;;;5074773;28;20029;-81
2021/03/06 02:16:43;;;;;;;26.83;16.52;;;6.80;99.90;;;;;;5075263;28;20025;-81
2021/03/06 02:19:50;;;;;;;30.90;19.27;;;7.10;99.90;;;;;;5075144;28;20495;-81
2021/03/06 02:22:15;;;;;;;26.17;16.42;;;6.80;99.90;;;;;;5074928;28;20051;-81
2021/03/06 02:25:15;;;;;;;25.90;15.85;;;6.80;99.90;;;;;;5074906;28;20481;-81
2021/03/06 02:28:08;;;;;;;24.90;15.93;;;6.80;99.90;;;;;;5074446;28;20025;-81
2021/03/06 02:30:35;;;;;;;23.48;16.02;;;6.70;99.90;;;;;;5074801;28;20138;-81
2021/03/06 02:33:01;;;;;;;24.48;16.85;;;6.90;99.90;;;;;;5074409;28;20024;-81
2021/03/06 02:35:32;;;;;;;26.15;16.38;;;6.60;99.90;;;;;;5074704;28;20481;-81
2021/03/06 02:38:07;;;;;;;26.17;15.73;;;6.50;99.90;;;;;;5074695;28;20108;-81
2021/03/06 02:40:35;;;;;;;26.55;16.65;;;6.40;99.90;;;;;;5074692;28;20021;-81
2021/03/06 02:43:02;;;;;;;24.90;16.70;;;6.40;99.90;;;;;;5074013;28;20034;-81
2021/03/06 02:45:29;;;;;;;26.30;16.63;;;6.40;99.90;;;;;;5074691;28;20023;-81
2021/03/06 02:47:56;;;;;;;23.10;16.08;;;6.60;99.90;;;;;;5074457;28;20039;-81
2021/03/06 02:50:22;;;;;;;28.40;16.92;;;6.60;99.90;;;;;;5074586;28;20032;-81
2021/03/06 02:52:47;;;;;;;25.42;16.67;;;6.70;99.90;;;;;;5074250;28;20074;-81
2021/03/06 02:55:13;;;;;;;26.08;17.15;;;6.50;99.90;;;;;;5074414;28;20021;-81
2021/03/06 02:58:00;;;;;;;26.90;17.02;;;6.70;99.90;;;;;;5074115;28;20032;-81
2021/03/06 03:00:43;;;;;;;24.77;16.40;;;6.40;99.90;;;;;;5073670;28;20025;-81
2021/03/06 03:03:11;;;;;;;25.83;16.70;;;6.90;99.90;;;;;;5074006;28;20044;-81
2021/03/06 03:05:45;;;;;;;25.13;16.10;;;6.50;99.90;;;;;;5074269;28;20024;-81
2021/03/06 03:08:22;;;;;;;25.33;16.38;;;6.40;99.90;;;;;;5074088;28;20031;-81
2021/03/06 03:10:55;;;;;;;24.38;16.33;;;6.30;99.90;;;;;;5073793;28;20369;-81
2021/03/06 03:13:25;;;;;;;25.00;16.77;;;6.50;99.90;;;;;;5074091;28;20031;-81
2021/03/06 03:15:57;;;;;;;25.60;16.13;;;6.50;99.90;;;;;;5073934;28;20353;-81
2021/03/06 03:18:35;;;;;;;26.55;16.65;;;6.40;99.90;;;;;;5073979;28;20387;-81
2021/03/06 03:21:03;;;;;;;24.02;16.42;;;6.60;99.90;;;;;;5073671;28;20066;-81
2021/03/06 03:23:43;;;;;;;25.90;16.38;;;6.30;99.90;;;;;;5073829;28;20036;-81
2021/03/06 03:26:12;;;;;;;23.35;15.88;;;6.10;99.90;;;;;;5073401;28;20060;-81
2021/03/06 03:28:42;;;;;;;27.58;16.67;;;6.70;99.90;;;;;;5073775;28;20500;-81
2021/03/06 03:31:09;;;;;;;25.35;17.02;;;6.20;99.90;;;;;;5073406;28;20021;-81
2021/03/06 03:33:36;;;;;;;25.42;16.70;;;6.30;99.90;;;;;;5073388;28;20570;-81
2021/03/06 03:36:04;;;;;;;29.15;17.08;;;6.10;99.90;;;;;;5073679;28;20031;-81
2021/03/06 03:38:30;;;;;;;24.50;15.77;;;6.30;99.90;;;;;;5073718;28;20017;-81
2021/03/06 03:41:00;;;;;;;26.17;16.70;;;6.20;99.90;;;;;;5073050;28;20021;-81
2021/03/06 03:43:27;;;;;;;25.42;16.30;;;6.30;99.90;;;;;;5073400;28;20040;-81
2021/03/06 03:45:53;;;;;;;23.30;15.68;;;6.70;99.90;;;;;;5073343;28;20027;-81
2021/03/06 03:48:20;;;;;;;24.25;16.33;;;6.40;99.90;;;;;;5073227;28;20096;-81
2021/03/06 03:50:46;;;;;;;25.95;17.05;;;6.70;99.90;;;;;;5073251;28;20108;-81
2021/03/06 03:53:12;;;;;;;24.85;15.70;;;6.30;99.90;;;;;;5073337;28;20099;-81
2021/03/06 03:55:39;;;;;;;27.38;16.48;;;6.40;99.90;;;;;;5072845;28;20231;-81
2021/03/06 03:58:05;;;;;;;26.35;15.82;;;6.20;99.90;;;;;;5072917;28;20024;-81
2021/03/06 04:00:31;;;;;;;24.48;16.35;;;6.10;99.90;;;;;;5073149;28;20391;-81
2021/03/06 04:03:02;;;;;;;25.30;16.63;;;6.20;99.90;;;;;;5072862;28;20052;-81
2021/03/06 04:05:28;;;;;;;24.27;16.52;;;6.10;99.90;;;;;;5073089;28;20035;-81
2021/03/06 04:07:54;;;;;;;24.83;16.42;;;6.10;99.90;;;;;;5073048;28;20029;-81
2021/03/06 04:10:21;;;;;;;24.45;15.90;;;6.00;99.90;;;;;;5072651;28;20078;-81
2021/03/06 04:12:48;;;;;;;24.17;16.13;;;6.20;99.90;;;;;;5072586;28;20542;-81
2021/03/06 04:15:15;;;;;;;24.75;15.68;;;5.90;99.90;;;;;;5072891;28;20029;-81
2021/03/06 04:17:41;;;;;;;24.50;15.75;;;5.80;99.90;;;;;;5054822;28;20503;-81
2021/03/06 04:20:09;;;;;;;25.90;16.17;;;6.40;99.90;;;;;;5072497;28;20021;-81
2021/03/06 04:22:36;;;;;;;25.02;16.00;;;6.00;99.90;;;;;;5054810;28;20400;-81
2021/03/06 04:25:02;;;;;;;23.10;16.02;;;6.00;99.90;;;;;;5072307;28;20496;-81
2021/03/06 04:27:28;;;;;;;25.50;16.67;;;5.90;99.90;;;;;;5072594;28;20029;-81
2021/03/06 04:29:53;;;;;;;24.70;16.23;;;6.20;99.90;;;;;;5072693;28;20057;-81
2021/03/06 04:32:19;;;;;;;24.10;16.02;;;6.20;99.90;;;;;;5072407;28;20606;-81
2021/03/06 04:34:45;;;;;;;26.52;16.73;;;6.00;99.90;;;;;;5072523;28;20384;-81
2021/03/06 04:37:11;;;;;;;21.85;15.45;;;6.10;99.90;;;;;;5072126;28;20013;-81
2021/03/06 04:39:36;;;;;;;22.17;15.35;;;6.20;99.90;;;;;;5072699;28;20380;-81
2021/03/06 04:42:02;;;;;;;24.70;16.30;;;6.00;99.90;;;;;;5072396;28;20440;-81
2021/03/06 04:44:28;;;;;;;22.15;15.48;;;5.70;99.90;;;;;;5072407;28;20062;-81
2021/03/06 04:46:53;;;;;;;25.00;16.10;;;6.20;99.90;;;;;;5054525;28;20036;-81
2021/03/06 04:49:19;;;;;;;24.55;16.40;;;5.50;99.90;;;;;;5072449;28;20028;-81
2021/03/06 04:51:45;;;;;;;23.25;15.70;;;5.90;99.90;;;;;;5072055;28;20031;-81
2021/03/06 04:54:11;;;;;;;26.10;17.17;;;6.00;99.90;;;;;;5072216;28;20020;-81
2021/03/06 04:56:37;;;;;;;25.77;16.13;;;5.70;99.90;;;;;;5072462;28;20024;-81
2021/03/06 04:59:03;;;;;;;22.35;14.85;;;5.40;99.90;;;;;;5072094;28;20378;-81
2021/03/06 05:01:28;;;;;;;24.83;16.02;;;5.60;99.90;;;;;;5072241;28;20033;-81
2021/03/06 05:03:54;;;;;;;22.40;15.27;;;5.80;99.90;;;;;;5072154;28;20055;-81
2021/03/06 05:06:19;;;;;;;23.20;15.77;;;5.90;99.90;;;;;;5071883;28;20650;-81
2021/03/06 05:08:45;;;;;;;25.60;16.85;;;5.80;99.90;;;;;;5072025;28;20025;-81
2021/03/06 05:11:11;;;;;;;22.95;16.17;;;5.20;99.90;;;;;;5072112;28;20115;-81
2021/03/06 05:13:37;;;;;;;23.67;15.90;;;5.40;99.90;;;;;;5072278;28;20021;-81
2021/03/06 05:16:04;;;;;;;26.20;17.42;;;5.80;99.90;;;;;;5072209;28;20020;-81
2021/03/06 05:18:30;;;;;;;23.40;16.00;;;5.40;99.90;;;;;;5072290;28;20021;-81
2021/03/06 05:20:57;;;;;;;24.02;16.75;;;5.60;99.90;;;;;;5071769;28;20435;-81
2021/03/06 05:23:23;;;;;;;21.95;16.05;;;5.90;99.90;;;;;;5071890;28;20017;-81
2021/03/06 05:25:49;;;;;;;28.58;16.55;;;5.70;99.90;;;;;;5057811;28;20036;-81
2021/03/06 05:28:22;;;;;;;23.73;16.17;;;5.70;99.90;;;;;;5058127;28;20055;-81
2021/03/06 05:30:48;;;;;;;24.38;16.05;;;5.70;99.90;;;;;;5075853;28;20012;-81
2021/03/06 05:33:15;;;;;;;23.08;16.33;;;5.50;99.90;;;;;;5075764;28;20027;-81
2021/03/06 05:35:41;;;;;;;25.10;17.02;;;5.60;99.90;;;;;;5075524;28;20027;-81
2021/03/06 05:38:07;;;;;;;24.70;17.00;;;6.00;99.90;;;;;;5075861;28;20021;-81
2021/03/06 05:40:38;;;;;;;23.25;15.63;;;5.50;99.90;;;;;;5075850;28;20439;-81
2021/03/06 05:43:04;;;;;;;24.30;16.55;;;5.90;99.90;;;;;;5057839;28;20025;-81
2021/03/06 05:45:30;;;;;;;26.13;16.42;;;5.60;99.90;;;;;;5075660;28;20027;-81
2021/03/06 05:48:00;;;;;;;26.52;17.35;;;6.10;99.90;;;;;;5075718;28;20055;-81
2021/03/06 05:50:26;;;;;;;24.33;16.30;;;5.50;99.90;;;;;;5075178;28;20025;-81
2021/03/06 05:52:55;;;;;;;25.77;18.17;;;6.00;99.90;;;;;;5075380;28;20025;-81
2021/03/06 05:55:23;;;;;;;26.83;17.65;;;6.10;99.90;;;;;;5057505;28;20055;-81
2021/03/06 05:57:49;;;;;;;27.40;17.35;;;5.90;99.90;;;;;;5075525;28;20049;-81
2021/03/06 06:00:15;;;;;;;26.92;17.33;;;5.80;99.90;;;;;;5075358;28;20059;-81
2021/03/06 06:02:41;;;;;;;25.08;17.30;;;5.80;99.90;;;;;;5075193;28;20052;-81
2021/03/06 06:05:07;;;;;;;25.17;17.35;;;5.80;99.90;;;;;;5074921;28;20032;-81
2021/03/06 06:07:35;;;;;;;26.05;17.98;;;5.70;99.90;;;;;;5075241;28;20054;-81
2021/03/06 06:10:00;;;;;;;25.75;17.00;;;6.40;99.90;;;;;;5075323;28;20035;-81
2021/03/06 06:12:27;;;;;;;27.48;16.65;;;5.80;99.90;;;;;;5075132;28;20103;-81
2021/03/06 06:14:52;;;;;;;28.85;17.90;;;6.30;99.90;;;;;;5075134;28;20069;-81
2021/03/06 06:17:18;;;;;;;24.95;16.70;;;5.80;99.90;;;;;;5074975;28;20024;-81
2021/03/06 06:19:44;;;;;;;24.92;17.23;;;6.40;99.90;;;;;;5074753;28;20103;-81
2021/03/06 06:22:22;;;;;;;23.90;16.63;;;6.00;99.90;;;;;;5075054;28;20028;-81
2021/03/06 06:24:52;;;;;;;26.73;16.25;;;6.20;99.90;;;;;;5075131;28;20048;-81
2021/03/06 06:27:32;;;;;;;26.98;17.48;;;6.00;99.90;;;;;;5074838;28;20021;-80
2021/03/06 06:29:59;;;;;;;26.08;17.23;;;6.00;99.90;;;;;;5059255;28;20090;-81
2021/03/06 06:32:41;;;;;;;25.25;17.73;;;6.00;99.90;;;;;;5092794;28;20025;-80
2021/03/06 06:35:09;;;;;;;22.67;16.15;;;6.10;99.90;;;;;;5093388;28;20024;-80
2021/03/06 06:37:35;;;;;;;25.80;17.88;;;6.00;99.90;;;;;;5093757;28;20111;-80
2021/03/06 06:40:19;;;;;;;26.63;17.55;;;6.40;99.90;;;;;;5094435;28;20028;-80
2021/03/06 06:42:44;;;;;;;26.70;18.88;;;6.00;99.90;;;;;;5094583;28;20028;-80
2021/03/06 06:45:11;;;;;;;24.10;18.02;;;6.50;99.90;;;;;;5073988;28;20377;-80
2021/03/06 06:47:43;;;;;;;27.33;18.75;;;6.00;99.90;;;;;;5073731;28;20017;-80
2021/03/06 06:50:11;;;;;;;25.10;17.60;;;5.90;99.90;;;;;;5074496;28;20032;-81
2021/03/06 06:52:44;;;;;;;24.45;17.05;;;5.80;99.90;;;;;;5074319;28;20086;-80
2021/03/06 06:55:12;;;;;;;25.20;17.73;;;5.90;99.90;;;;;;5074444;28;20028;-80
2021/03/06 06:57:54;;;;;;;26.13;17.85;;;5.90;99.90;;;;;;5074304;28;20388;-80
2021/03/06 07:00:20;;;;;;;25.65;17.58;;;5.90;99.90;;;;;;5074110;28;20503;-80
2021/03/06 07:02:57;;;;;;;27.23;18.20;;;6.00;99.90;;;;;;5073574;28;20063;-80
2021/03/06 07:05:33;;;;;;;25.17;17.38;;;6.10;99.90;;;;;;5074015;28;20020;-80
2021/03/06 07:08:01;;;;;;;28.25;17.83;;;6.70;99.90;;;;;;5080185;28;20122;-80
2021/03/06 07:10:35;;;;;;;27.20;17.77;;;6.70;99.90;;;;;;5085898;28;20020;-80
2021/03/06 07:13:04;;;;;;;25.40;17.20;;;6.30;99.90;;;;;;5083261;28;20054;-80
2021/03/06 07:15:31;;;;;;;27.08;18.40;;;6.40;99.90;;;;;;5087830;28;20032;-80
2021/03/06 07:18:00;;;;;;;26.15;18.33;;;6.40;99.90;;;;;;5065139;28;20017;-80
2021/03/06 07:20:36;;;;;;;25.80;17.92;;;6.30;99.90;;;;;;5072520;28;20016;-80
2021/03/06 07:23:22;;;;;;;31.77;18.58;;;6.50;99.90;;;;;;5079830;28;20055;-80
2021/03/06 07:25:55;;;;;;;32.20;21.13;;;6.80;99.90;;;;;;5078515;28;20422;-80
2021/03/06 07:28:22;;;;;;;29.98;20.15;;;6.60;99.90;;;;;;5087804;28;20055;-80
2021/03/06 07:30:49;;;;;;;27.35;19.05;;;6.60;99.90;;;;;;5073243;28;20504;-80
2021/03/06 07:33:17;;;;;;;24.95;18.02;;;7.20;99.90;;;;;;5079012;28;20046;-80
2021/03/06 07:35:45;;;;;;;26.70;18.42;;;7.40;99.90;;;;;;5089349;28;20016;-80
2021/03/06 07:38:14;;;;;;;36.42;23.30;;;7.00;99.90;;;;;;5084554;28;20028;-80
2021/03/06 07:40:41;;;;;;;25.88;18.02;;;7.10;99.90;;;;;;5080610;28;20429;-80
2021/03/06 07:43:14;;;;;;;26.55;18.15;;;7.00;99.90;;;;;;5080830;28;20030;-80
2021/03/06 07:45:45;;;;;;;24.77;17.25;;;7.10;99.90;;;;;;5080194;28;20074;-81
2021/03/06 07:48:15;;;;;;;26.10;17.63;;;7.80;99.90;;;;;;5089302;28;20511;-80
2021/03/06 07:50:51;;;;;;;25.60;17.65;;;7.30;99.90;;;;;;5079245;28;20024;-80
2021/03/06 07:53:21;;;;;;;25.55;17.48;;;7.00;99.90;;;;;;5080933;28;20039;-81
2021/03/06 07:55:47;;;;;;;25.75;18.58;;;7.20;99.90;;;;;;5080968;28;20016;-80
2021/03/06 07:58:22;;;;;;;25.67;17.33;;;7.40;99.90;;;;;;5073482;28;20107;-81
2021/03/06 08:00:53;;;;;;;24.30;16.60;;;7.70;99.90;;;;;;5072906;28;20032;-86
2021/03/06 08:03:28;;;;;;;26.75;18.23;;;7.90;99.90;;;;;;5073041;28;20575;-82
2021/03/06 08:06:02;;;;;;;28.02;18.10;;;7.90;99.90;;;;;;5073304;28;20025;-82
2021/03/06 08:08:33;;;;;;;24.50;17.67;;;7.50;99.90;;;;;;5072170;28;20047;-80
2021/03/06 08:11:16;;;;;;;24.52;17.08;;;8.10;99.90;;;;;;5070490;28;20438;-81
2021/03/06 08:13:53;;;;;;;26.15;17.00;;;8.00;99.90;;;;;;5072575;28;20012;-83
2021/03/06 08:16:22;;;;;;;24.20;16.85;;;8.50;99.90;;;;;;5072701;28;20060;-82
2021/03/06 08:19:12;;;;;;;24.67;17.13;;;8.60;99.90;;;;;;5071841;28;20099;-83
2021/03/06 08:21:40;;;;;;;23.92;16.25;;;8.70;99.90;;;;;;5064828;28;20123;-82
2021/03/06 08:24:15;;;;;;;24.35;17.85;;;9.00;99.90;;;;;;5054771;28;20049;-83
2021/03/06 08:27:01;;;;;;;26.83;17.17;;;9.30;99.90;;;;;;5072641;28;20035;-82
2021/03/06 08:29:27;;;;;;;24.73;16.90;;;9.20;99.90;;;;;;5062900;28;20046;-80
2021/03/06 08:31:56;;;;;;;24.65;17.85;;;9.60;99.90;;;;;;5092994;28;20037;-80
2021/03/06 08:34:29;;;;;;;24.33;17.70;;;9.70;99.90;;;;;;5093194;28;20073;-80
2021/03/06 08:39:47;;;;;;;23.40;18.02;;;10.30;99.90;;;;;;5093115;28;20028;-81
2021/03/06 08:42:18;;;;;;;25.45;19.08;;;10.60;99.90;;;;;;5092477;28;20036;-81
2021/03/06 08:44:44;;;;;;;23.92;18.48;;;11.00;99.90;;;;;;5092053;28;20434;-82
2021/03/06 08:47:10;;;;;;;23.77;17.42;;;11.40;99.90;;;;;;5074550;28;20085;-81
2021/03/06 08:49:37;;;;;;;25.42;17.50;;;11.20;99.90;;;;;;5091532;28;20026;-82
2021/03/06 08:52:04;;;;;;;25.38;17.85;;;11.30;99.90;;;;;;5074025;28;20028;-82
2021/03/06 08:54:40;;;;;;;23.08;17.52;;;11.60;99.90;;;;;;5092630;28;20502;-82
2021/03/06 08:57:33;;;;;;;23.38;17.75;;;13.00;99.90;;;;;;5092604;28;20035;-82
2021/03/06 09:00:04;;;;;;;23.30;17.88;;;13.80;99.90;;;;;;5091464;28;20020;-82
2021/03/06 09:02:32;;;;;;;24.65;18.25;;;13.20;99.90;;;;;;5092396;28;20119;-80
2021/03/06 09:05:08;;;;;;;25.05;18.48;;;13.40;99.90;;;;;;5092167;28;20038;-80
2021/03/06 09:07:39;;;;;;;22.90;17.00;;;13.30;99.90;;;;;;5092358;28;20157;-80
2021/03/06 09:10:22;;;;;;;22.75;17.02;;;14.20;99.90;;;;;;5092241;28;20047;-80
2021/03/06 09:12:50;;;;;;;22.13;17.75;;;17.80;99.90;;;;;;5091891;28;20024;-80
2021/03/06 09:15:26;;;;;;;24.92;18.55;;;19.60;99.90;;;;;;5092435;28;20020;-80
2021/03/06 09:17:52;;;;;;;28.65;23.20;;;18.20;99.90;;;;;;5092137;28;20077;-80
2021/03/06 09:20:18;;;;;;;23.45;17.85;;;15.90;99.90;;;;;;5092234;28;20024;-80
2021/03/06 09:22:49;;;;;;;25.40;19.60;;;13.80;99.90;;;;;;5092125;28;20031;-80
2021/03/06 09:25:38;;;;;;;25.00;19.33;;;13.30;99.90;;;;;;5092077;28;20430;-80
2021/03/06 09:28:05;;;;;;;29.30;22.58;;;12.80;99.90;;;;;;5091774;28;20519;-80
2021/03/06 09:30:34;;;;;;;23.98;18.73;;;13.00;99.90;;;;;;5092273;28;20028;-80
2021/03/06 09:33:00;;;;;;;26.67;19.73;;;13.60;99.90;;;;;;5091750;28;20025;-80
2021/03/06 09:35:27;;;;;;;26.70;20.88;;;15.60;99.90;;;;;;5091937;28;20082;-80
2021/03/06 09:38:08;;;;;;;25.38;20.02;;;16.50;99.90;;;;;;5091965;28;20031;-80
2021/03/06 09:40:40;;;;;;;22.23;18.60;;;18.30;99.90;;;;;;5092278;28;20016;-80
2021/03/06 09:43:06;;;;;;;24.63;18.70;;;19.90;99.90;;;;;;5091848;28;20471;-80
2021/03/06 09:45:32;;;;;;;22.60;18.10;;;21.00;99.90;;;;;;5073787;28;20119;-80
2021/03/06 09:48:07;;;;;;;23.45;19.35;;;18.80;99.90;;;;;;5092007;28;20028;-81
2021/03/06 09:50:33;;;;;;;23.02;18.70;;;18.30;99.90;;;;;;5092118;28;20027;-81
2021/03/06 09:53:19;;;;;;;23.38;18.42;;;17.90;99.90;;;;;;5073632;28;20035;-81
2021/03/06 09:55:46;;;;;;;22.80;18.45;;;17.30;99.90;;;;;;5091862;28;20016;-81
2021/03/06 09:58:19;;;;;;;23.52;18.85;;;17.10;99.90;;;;;;5091457;28;20111;-81
2021/03/06 10:00:46;;;;;;;23.83;19.65;;;16.60;99.90;;;;;;5091801;28;20044;-81
2021/03/06 10:03:11;;;;;;;23.13;19.67;;;16.50;99.90;;;;;;5091669;28;20462;-81
2021/03/06 10:05:37;;;;;;;24.65;19.52;;;16.30;99.90;;;;;;5091851;28;20032;-81
2021/03/06 10:08:03;;;;;;;23.42;19.55;;;16.00;99.90;;;;;;5091749;28;20027;-81
2021/03/06 10:10:29;;;;;;;24.83;20.00;;;15.50;99.90;;;;;;5093080;28;20016;-81
2021/03/06 10:12:55;;;;;;;25.73;20.35;;;15.30;99.90;;;;;;5095050;28;20425;-81
2021/03/06 10:15:21;;;;;;;22.52;19.00;;;18.40;99.90;;;;;;5095414;28;20020;-81
2021/03/06 10:17:48;;;;;;;22.50;19.02;;;18.70;99.90;;;;;;5095189;28;20027;-81
2021/03/06 10:20:14;;;;;;;22.00;18.48;;;19.60;99.90;;;;;;5095188;28;20020;-81
2021/03/06 10:22:48;;;;;;;25.27;19.55;;;20.90;99.90;;;;;;5094910;28;20036;-81
2021/03/06 10:25:23;;;;;;;22.88;19.10;;;22.60;99.90;;;;;;5094987;28;20020;-80
2021/03/06 10:27:49;;;;;;;23.08;19.33;;;24.70;99.90;;;;;;5095294;28;20069;-80
2021/03/06 10:30:18;;;;;;;25.90;20.73;;;24.60;99.90;;;;;;5095058;28;20020;-81
2021/03/06 10:33:00;;;;;;;23.13;20.35;;;23.60;99.90;;;;;;5095075;28;20039;-81
2021/03/06 10:35:42;;;;;;;23.65;20.02;;;23.70;99.90;;;;;;5095064;28;20575;-81
2021/03/06 10:38:28;;;;;;;20.95;18.75;;;23.40;99.90;;;;;;5094870;28;20024;-81
2021/03/06 10:41:01;;;;;;;20.63;18.52;;;23.60;99.90;;;;;;5094352;28;20016;-81
2021/03/06 10:43:40;;;;;;;21.67;19.02;;;23.70;99.90;;;;;;5094677;28;20047;-81
2021/03/06 10:46:30;;;;;;;22.35;18.85;;;23.90;99.90;;;;;;5094460;28;20023;-81
2021/03/06 10:49:09;;;;;;;22.48;19.15;;;25.90;99.90;;;;;;5094646;28;20503;-81
2021/03/06 10:51:50;;;;;;;22.23;19.67;;;27.40;99.90;;;;;;5094685;28;20024;-81
2021/03/06 10:54:18;;;;;;;20.63;18.42;;;27.60;99.90;;;;;;5094357;28;20043;-81
2021/03/06 10:56:44;;;;;;;20.70;18.50;;;27.50;99.90;;;;;;5094570;28;20087;-81
2021/03/06 10:59:10;;;;;;;22.50;19.42;;;24.30;99.90;;;;;;5094459;28;20022;-81
2021/03/06 11:01:47;;;;;;;20.98;18.88;;;25.20;99.90;;;;;;5094413;28;20486;-81
2021/03/06 11:04:33;;;;;;;19.80;17.90;;;23.40;99.90;;;;;;5094141;28;20048;-81
2021/03/06 11:07:07;;;;;;;21.58;19.35;;;26.90;99.90;;;;;;5094471;28;20431;-80
2021/03/06 11:09:36;;;;;;;20.88;18.67;;;23.00;99.90;;;;;;5092360;28;20047;-82
2021/03/06 11:12:19;;;;;;;21.58;19.15;;;21.60;99.90;;;;;;5073152;28;20016;-81
2021/03/06 11:14:44;;;;;;;22.50;19.10;;;20.80;99.90;;;;;;5073949;28;20025;-80
2021/03/06 11:17:16;;;;;;;22.85;20.42;;;19.70;99.90;;;;;;5073345;28;20017;-81
2021/03/06 11:19:43;;;;;;;21.63;19.17;;;18.90;99.90;;;;;;5073591;28;20036;-81
2021/03/06 11:22:10;;;;;;;23.05;20.08;;;18.50;99.90;;;;;;5072452;28;20032;-81
2021/03/06 11:24:36;;;;;;;21.98;19.17;;;19.90;99.90;;;;;;5085824;28;20020;-81
2021/03/06 11:27:01;;;;;;;21.55;19.15;;;24.90;99.90;;;;;;5094801;28;20161;-81
2021/03/06 11:29:28;;;;;;;21.58;19.20;;;27.60;99.90;;;;;;5094410;28;20051;-81
2021/03/06 11:31:55;;;;;;;22.10;19.80;;;30.20;99.90;;;;;;5094065;28;20073;-81
2021/03/06 11:34:21;;;;;;;21.83;19.52;;;27.80;99.90;;;;;;5094110;28;20135;-81
2021/03/06 11:36:47;;;;;;;22.40;20.00;;;23.40;99.90;;;;;;5093695;28;20392;-81
2021/03/06 11:39:13;;;;;;;21.67;19.38;;;21.30;99.90;;;;;;5092100;28;20028;-81
2021/03/06 11:41:40;;;;;;;22.70;20.30;;;20.50;99.90;;;;;;5094313;28;20032;-81
2021/03/06 11:44:07;;;;;;;23.05;20.65;;;19.60;99.90;;;;;;5093827;28;20419;-81
2021/03/06 11:46:33;;;;;;;23.48;20.17;;;19.30;99.90;;;;;;5094016;28;20024;-80
2021/03/06 11:48:58;;;;;;;21.75;19.10;;;19.00;99.90;;;;;;5093730;28;20448;-80
2021/03/06 11:51:24;;;;;;;21.77;19.38;;;20.60;99.90;;;;;;5093867;28;20114;-81
2021/03/06 11:53:49;;;;;;;21.85;19.42;;;19.10;99.90;;;;;;5093345;28;20031;-82
2021/03/06 11:56:15;;;;;;;21.98;19.45;;;18.90;99.90;;;;;;5092809;28;20404;-82
2021/03/06 11:58:42;;;;;;;22.23;19.92;;;19.30;99.90;;;;;;5092397;28;20039;-82
2021/03/06 12:01:07;;;;;;;22.40;19.80;;;19.60;99.90;;;;;;5092493;28;20020;-84
2021/03/06 12:03:33;;;;;;;22.92;20.05;;;19.80;99.90;;;;;;5092682;28;20384;-86
2021/03/06 12:05:58;;;;;;;26.05;20.75;;;20.50;99.90;;;;;;5092759;28;20031;-83
2021/03/06 12:08:24;;;;;;;23.85;21.05;;;21.10;99.90;;;;;;5092625;28;20129;-83
2021/03/06 12:10:50;;;;;;;27.33;21.33;;;20.60;99.90;;;;;;5092615;28;20024;-83
2021/03/06 12:13:15;;;;;;;26.58;21.45;;;20.30;99.90;;;;;;5092326;28;20081;-82
2021/03/06 12:15:41;;;;;;;25.48;21.75;;;18.90;99.90;;;;;;5093193;28;20024;-82
2021/03/06 12:18:06;;;;;;;24.10;20.85;;;17.50;99.90;;;;;;5093026;28;20021;-83
2021/03/06 12:20:32;;;;;;;21.77;19.48;;;17.30;99.90;;;;;;5093017;28;20104;-83
2021/03/06 12:22:58;;;;;;;25.60;20.00;;;19.30;99.90;;;;;;5092653;28;20503;-83
2021/03/06 12:25:23;;;;;;;22.85;19.70;;;21.60;99.90;;;;;;5092972;28;20032;-83
2021/03/06 12:27:49;;;;;;;23.85;20.27;;;24.20;99.90;;;;;;5093007;28;20507;-83
2021/03/06 12:30:17;;;;;;;23.05;20.58;;;25.90;99.90;;;;;;5092814;28;20028;-83
2021/03/06 12:32:44;;;;;;;22.92;20.35;;;26.30;99.90;;;;;;5092712;28;20030;-83
2021/03/06 12:35:10;;;;;;;22.52;19.63;;;27.20;99.90;;;;;;5092689;28;20020;-83
2021/03/06 12:37:36;;;;;;;21.83;19.38;;;26.40;99.90;;;;;;5092488;28;20020;-81
2021/03/06 12:40:03;;;;;;;22.35;19.98;;;24.60;99.90;;;;;;5092646;28;20039;-80
2021/03/06 12:42:29;;;;;;;22.83;20.45;;;23.30;99.90;;;;;;5092744;28;20024;-80
2021/03/06 12:44:55;;;;;;;23.52;20.42;;;22.70;99.90;;;;;;5092777;28;20431;-80
2021/03/06 12:47:20;;;;;;;22.60;20.20;;;25.40;99.90;;;;;;5092375;28;20036;-80